Time;durP1;ratioP1;P1;durP2;ratioP2;P2;SDS_P1;SDS_P2;PMS_P1;PMS_P2;Temp;Humidity;BMP_temperature;BMP_pressure;BME280_temperature;BME280_humidity;BME280_pressure;Samples;Min_cycle;Max_cycle;Signal;HPM_P1;HPM_P2
2021/03/28 00:01:39;;;;;;;8.52;2.85;;;6.10;1.00;;;;;;5023990;28;20213;-70
2021/03/28 00:04:10;;;;;;;10.95;4.00;;;6.30;1.00;;;;;;5096435;28;20190;-71
2021/03/28 00:06:48;;;;;;;9.43;4.10;;;6.40;1.00;;;;;;5096154;28;20716;-70
2021/03/28 00:09:35;;;;;;;13.68;3.30;;;6.40;1.00;;;;;;5096134;28;20187;-71
2021/03/28 00:12:18;;;;;;;18.73;3.63;;;6.50;1.00;;;;;;5096103;28;20187;-71
2021/03/28 00:15:02;;;;;;;5.55;3.13;;;6.50;1.00;;;;;;5096009;28;20179;-71
2021/03/28 00:17:48;;;;;;;8.77;3.00;;;6.20;1.00;;;;;;5096328;28;20193;-71
2021/03/28 00:20:16;;;;;;;13.43;3.22;;;6.00;1.00;;;;;;5096200;28;20520;-71
2021/03/28 00:23:00;;;;;;;11.15;3.20;;;6.00;1.00;;;;;;5095797;28;20213;-71
2021/03/28 00:25:40;;;;;;;7.90;3.78;;;6.00;1.00;;;;;;5096154;28;20668;-71
2021/03/28 00:28:19;;;;;;;10.57;3.60;;;5.60;1.00;;;;;;5095933;28;20160;-70
2021/03/28 00:30:44;;;;;;;7.15;3.30;;;5.50;1.00;;;;;;5095871;28;20156;-71
2021/03/28 00:33:10;;;;;;;11.87;3.27;;;5.40;1.00;;;;;;5095851;28;20202;-70
2021/03/28 00:35:52;;;;;;;15.97;4.60;;;5.30;1.00;;;;;;5095575;28;20167;-71
2021/03/28 00:38:29;;;;;;;7.07;3.40;;;5.50;1.00;;;;;;5095596;28;20242;-71
2021/03/28 00:41:42;;;;;;;10.45;3.08;;;5.60;1.00;;;;;;5095867;28;20482;-70
2021/03/28 00:44:14;;;;;;;9.43;3.67;;;5.70;1.00;;;;;;5064588;28;20639;-71
2021/03/28 00:46:46;;;;;;;8.65;2.67;;;5.70;1.00;;;;;;5095358;28;20182;-70
2021/03/28 00:49:26;;;;;;;8.30;2.55;;;5.60;1.00;;;;;;5095413;28;20621;-71
2021/03/28 00:51:57;;;;;;;5.35;2.50;;;5.70;1.00;;;;;;5095508;28;20159;-71
2021/03/28 00:54:45;;;;;;;6.43;3.17;;;6.00;1.00;;;;;;5095569;28;20671;-71
2021/03/28 00:57:29;;;;;;;7.43;3.50;;;5.90;1.00;;;;;;5096223;28;20157;-71
2021/03/28 01:00:11;;;;;;;5.93;3.08;;;5.90;1.00;;;;;;5096032;28;20640;-71
2021/03/28 01:03:03;;;;;;;9.63;3.03;;;6.20;1.00;;;;;;5095327;28;20266;-71
2021/03/28 01:05:47;;;;;;;7.75;3.00;;;6.40;1.00;;;;;;5095427;28;20156;-71
2021/03/28 01:08:24;;;;;;;7.78;2.85;;;6.50;1.00;;;;;;5094871;28;20183;-71
2021/03/28 01:11:14;;;;;;;11.73;3.00;;;6.70;1.00;;;;;;5095072;28;20160;-70
2021/03/28 01:14:17;;;;;;;7.85;2.92;;;6.70;1.00;;;;;;5094842;28;20199;-71
2021/03/28 01:17:20;;;;;;;12.57;4.10;;;6.80;1.00;;;;;;5094922;28;20191;-71
2021/03/28 01:20:19;;;;;;;7.75;3.35;;;6.80;1.00;;;;;;5094838;28;20531;-71
2021/03/28 01:23:15;;;;;;;9.45;3.15;;;6.80;1.00;;;;;;5094778;28;20195;-71
2021/03/28 01:26:05;;;;;;;7.70;2.90;;;6.80;1.00;;;;;;5095041;28;20164;-71
2021/03/28 01:28:35;;;;;;;11.68;2.65;;;6.80;1.00;;;;;;5106813;28;20156;-70
2021/03/28 01:31:13;;;;;;;10.98;2.90;;;6.90;1.00;;;;;;5102236;28;20198;-70
2021/03/28 01:33:49;;;;;;;10.23;2.65;;;6.80;1.00;;;;;;5099477;28;20199;-70
2021/03/28 01:36:43;;;;;;;10.43;2.25;;;6.90;1.00;;;;;;5097118;28;20494;-71
2021/03/28 01:39:37;;;;;;;7.40;2.75;;;7.10;1.00;;;;;;5095305;28;20643;-71
2021/03/28 01:42:10;;;;;;;11.30;2.55;;;7.10;1.00;;;;;;5094266;28;20362;-71
2021/03/28 01:45:09;;;;;;;10.20;2.78;;;7.30;1.00;;;;;;5094581;28;20645;-71
2021/03/28 01:48:01;;;;;;;9.75;3.42;;;7.30;1.00;;;;;;5094261;28;20176;-72
2021/03/28 01:51:07;;;;;;;10.55;2.80;;;7.30;1.00;;;;;;5094234;28;20159;-71
2021/03/28 01:53:38;;;;;;;10.15;3.08;;;7.20;1.00;;;;;;5083122;28;20240;-71
2021/03/28 01:56:09;;;;;;;8.80;3.22;;;7.20;1.00;;;;;;5094427;28;20156;-71
2021/03/28 01:58:59;;;;;;;7.53;2.72;;;7.10;1.00;;;;;;5094311;28;20666;-71
2021/03/28 02:01:41;;;;;;;5.50;3.03;;;7.10;1.00;;;;;;5094571;28;20155;-71
2021/03/28 02:04:15;;;;;;;12.60;3.05;;;7.20;1.00;;;;;;5093595;28;20565;-71
2021/03/28 02:06:40;;;;;;;13.15;3.53;;;7.10;1.00;;;;;;5094227;28;20160;-71
2021/03/28 02:09:30;;;;;;;8.30;2.80;;;7.20;1.00;;;;;;5093761;28;20232;-71
2021/03/28 02:12:05;;;;;;;14.88;3.15;;;7.20;1.00;;;;;;5093782;28;20213;-71
2021/03/28 02:14:52;;;;;;;8.45;2.70;;;7.30;1.00;;;;;;5094267;28;20191;-71
2021/03/28 02:17:21;;;;;;;9.52;2.58;;;7.10;1.00;;;;;;5093789;28;20164;-71
2021/03/28 02:20:14;;;;;;;7.20;2.60;;;7.30;1.00;;;;;;5093725;28;20163;-71
2021/03/28 02:23:10;;;;;;;13.95;3.60;;;7.30;1.00;;;;;;5093703;28;20179;-70
2021/03/28 02:26:07;;;;;;;8.43;2.80;;;7.40;1.00;;;;;;5093656;28;20160;-71
2021/03/28 02:28:55;;;;;;;13.57;2.40;;;7.40;1.00;;;;;;5092400;28;20191;-71
2021/03/28 02:31:34;;;;;;;7.90;2.67;;;7.40;1.00;;;;;;5093761;28;20171;-71
2021/03/28 02:34:24;;;;;;;5.70;2.17;;;7.30;1.00;;;;;;5093414;28;20186;-71
2021/03/28 02:37:08;;;;;;;8.15;2.42;;;7.40;1.00;;;;;;5093712;28;20160;-71
2021/03/28 02:39:43;;;;;;;6.93;2.20;;;7.50;1.00;;;;;;5093632;28;20168;-71
2021/03/28 02:42:17;;;;;;;6.95;2.40;;;7.40;1.00;;;;;;5093316;28;20210;-71
2021/03/28 02:44:54;;;;;;;5.53;1.98;;;7.40;1.00;;;;;;5093565;28;20163;-71
2021/03/28 02:47:44;;;;;;;8.15;2.20;;;7.30;1.00;;;;;;5093560;28;20187;-71
2021/03/28 02:50:25;;;;;;;9.75;1.95;;;7.30;1.00;;;;;;5093427;28;20567;-71
2021/03/28 02:53:12;;;;;;;11.18;2.72;;;7.40;1.00;;;;;;5093401;28;20187;-71
2021/03/28 02:55:55;;;;;;;13.35;2.67;;;7.30;1.00;;;;;;5093169;28;20590;-71
2021/03/28 02:58:46;;;;;;;8.35;2.50;;;7.30;1.00;;;;;;5093383;28;20151;-72
2021/03/28 03:01:51;;;;;;;4.75;1.63;;;7.40;1.00;;;;;;5093129;28;20212;-71
2021/03/28 03:04:47;;;;;;;12.48;2.35;;;7.40;1.00;;;;;;5093069;28;20669;-71
2021/03/28 03:07:26;;;;;;;6.68;2.05;;;7.40;1.00;;;;;;5093318;28;20163;-71
2021/03/28 03:10:13;;;;;;;8.25;1.77;;;7.40;1.00;;;;;;5093436;28;20151;-71
2021/03/28 03:13:08;;;;;;;9.18;2.30;;;7.30;1.00;;;;;;5092896;28;20183;-71
2021/03/28 03:15:53;;;;;;;5.68;2.38;;;7.40;1.00;;;;;;5094063;28;20232;-71
2021/03/28 03:18:55;;;;;;;8.73;2.40;;;7.40;1.00;;;;;;5100651;28;20596;-71
2021/03/28 03:21:39;;;;;;;9.50;2.55;;;7.30;1.00;;;;;;5100145;28;20219;-72
2021/03/28 03:24:20;;;;;;;6.97;2.15;;;7.20;1.00;;;;;;5099942;28;20620;-72
2021/03/28 03:27:16;;;;;;;6.65;1.88;;;7.30;1.00;;;;;;5099869;28;20148;-72
2021/03/28 03:30:03;;;;;;;6.25;1.85;;;7.20;1.00;;;;;;5099605;28;20144;-71
2021/03/28 03:33:06;;;;;;;12.35;2.50;;;7.20;1.00;;;;;;5099699;28;20285;-72
2021/03/28 03:36:12;;;;;;;4.60;1.63;;;7.20;1.00;;;;;;5099564;28;20512;-71
2021/03/28 03:38:56;;;;;;;6.40;1.90;;;7.30;1.00;;;;;;5099432;28;20175;-71
2021/03/28 03:41:46;;;;;;;5.65;1.85;;;7.30;1.00;;;;;;5099503;28;20165;-72
2021/03/28 03:44:31;;;;;;;5.35;2.75;;;7.20;1.00;;;;;;5099473;28;20147;-72
2021/03/28 03:47:02;;;;;;;11.80;2.65;;;7.30;1.00;;;;;;5099508;28;20621;-72
2021/03/28 03:49:45;;;;;;;6.43;2.63;;;7.30;1.00;;;;;;5099602;28;20206;-72
2021/03/28 03:52:40;;;;;;;13.40;1.88;;;7.40;1.00;;;;;;5099500;28;20179;-72
2021/03/28 03:55:41;;;;;;;8.27;2.10;;;7.30;1.00;;;;;;5099573;28;20290;-71
2021/03/28 03:58:20;;;;;;;8.70;2.08;;;7.20;1.00;;;;;;5056722;28;20178;-71
2021/03/28 04:00:55;;;;;;;4.35;1.80;;;7.20;1.00;;;;;;5099241;28;20624;-72
2021/03/28 04:03:30;;;;;;;8.52;2.50;;;7.20;1.00;;;;;;5099417;28;20293;-72
2021/03/28 04:06:23;;;;;;;4.03;2.17;;;7.30;1.00;;;;;;5099235;28;20193;-72
2021/03/28 04:08:54;;;;;;;4.07;1.65;;;7.30;1.00;;;;;;5099065;28;20236;-71
2021/03/28 04:11:38;;;;;;;10.30;2.78;;;7.40;1.00;;;;;;5099469;28;20631;-72
2021/03/28 04:14:24;;;;;;;11.05;2.25;;;7.30;1.00;;;;;;5099028;28;20695;-72
2021/03/28 04:17:02;;;;;;;4.45;2.10;;;7.30;1.00;;;;;;5099051;28;20167;-71
2021/03/28 04:20:07;;;;;;;8.13;2.47;;;7.30;1.00;;;;;;5098973;28;20163;-72
2021/03/28 04:22:45;;;;;;;13.40;3.22;;;7.40;1.00;;;;;;5098947;28;20194;-72
2021/03/28 04:25:38;;;;;;;2.92;2.03;;;7.20;1.00;;;;;;5099288;28;20162;-71
2021/03/28 04:28:21;;;;;;;5.57;1.95;;;7.30;1.00;;;;;;5096641;28;20505;-71
2021/03/28 04:31:30;;;;;;;9.55;2.10;;;7.40;1.00;;;;;;5095816;28;20599;-72
2021/03/28 04:34:12;;;;;;;7.68;2.20;;;7.30;1.00;;;;;;5095743;28;20202;-71
2021/03/28 04:37:03;;;;;;;7.18;2.50;;;7.50;1.00;;;;;;5095769;28;20156;-71
2021/03/28 04:39:47;;;;;;;8.52;3.00;;;7.50;1.00;;;;;;5095543;28;20187;-71
2021/03/28 04:42:34;;;;;;;11.10;3.33;;;7.50;1.00;;;;;;5095475;28;20271;-71
2021/03/28 04:45:36;;;;;;;11.43;2.05;;;7.30;1.00;;;;;;5095769;28;20513;-71
2021/03/28 04:48:40;;;;;;;7.45;2.00;;;7.40;1.00;;;;;;5095719;28;20612;-71
2021/03/28 04:51:24;;;;;;;9.27;3.72;;;7.40;1.00;;;;;;5095681;28;20203;-72
2021/03/28 04:54:26;;;;;;;5.10;2.03;;;7.50;1.00;;;;;;5095350;28;20683;-72
2021/03/28 04:57:18;;;;;;;6.57;2.58;;;7.50;1.00;;;;;;5095448;28;20250;-72
2021/03/28 05:00:15;;;;;;;9.05;2.33;;;7.60;1.00;;;;;;5095806;28;20239;-72
2021/03/28 05:03:01;;;;;;;4.50;1.77;;;7.70;1.00;;;;;;5095155;28;20266;-72
2021/03/28 05:05:47;;;;;;;5.40;2.05;;;7.60;1.00;;;;;;5095384;28;20155;-72
2021/03/28 05:08:50;;;;;;;8.52;2.55;;;7.60;1.00;;;;;;5095036;28;20187;-71
2021/03/28 05:11:40;;;;;;;6.47;2.15;;;7.60;1.00;;;;;;5094919;28;20255;-72
2021/03/28 05:14:30;;;;;;;7.97;2.00;;;7.60;1.00;;;;;;5094897;28;20199;-72
2021/03/28 05:17:34;;;;;;;7.35;2.75;;;7.70;1.00;;;;;;5094845;28;20175;-71
2021/03/28 05:19:59;;;;;;;5.60;1.80;;;7.60;1.00;;;;;;5094762;28;20524;-71
2021/03/28 05:22:52;;;;;;;9.20;2.60;;;7.60;1.00;;;;;;5094947;28;20206;-72
2021/03/28 05:25:38;;;;;;;7.38;2.15;;;7.70;1.00;;;;;;5094763;28;20585;-72
2021/03/28 05:28:31;;;;;;;5.35;2.30;;;7.60;1.00;;;;;;5094682;28;20175;-71
2021/03/28 05:31:02;;;;;;;6.65;1.48;;;7.70;1.00;;;;;;5095143;28;20156;-72
2021/03/28 05:33:54;;;;;;;9.15;1.65;;;7.60;1.00;;;;;;5095252;28;20707;-72
2021/03/28 05:36:31;;;;;;;6.78;1.95;;;7.70;1.00;;;;;;5094410;28;20211;-71
2021/03/28 05:39:29;;;;;;;5.30;1.83;;;7.70;1.00;;;;;;5093951;28;20231;-71
2021/03/28 05:42:13;;;;;;;7.53;1.73;;;7.60;1.00;;;;;;5094870;28;20255;-71
2021/03/28 05:45:13;;;;;;;2.67;1.52;;;7.60;1.00;;;;;;5094393;28;20207;-71
2021/03/28 05:47:58;;;;;;;6.88;2.78;;;7.40;1.00;;;;;;5094284;28;20156;-72
2021/03/28 05:50:47;;;;;;;5.85;1.70;;;7.60;1.00;;;;;;5094838;28;20160;-72
2021/03/28 05:53:45;;;;;;;8.30;2.33;;;7.70;1.00;;;;;;5083801;28;20235;-72
2021/03/28 05:56:48;;;;;;;7.35;1.80;;;7.60;1.00;;;;;;5094872;28;20144;-72
2021/03/28 05:59:42;;;;;;;5.45;1.67;;;7.70;1.00;;;;;;5094087;28;20171;-71
2021/03/28 06:02:56;;;;;;;5.13;1.60;;;7.60;1.00;;;;;;5094323;28;20261;-71
2021/03/28 06:05:58;;;;;;;8.18;2.10;;;7.80;1.00;;;;;;5093928;28;20160;-72
2021/03/28 06:09:11;;;;;;;8.82;1.75;;;7.70;1.00;;;;;;5093795;28;20210;-72
2021/03/28 06:12:06;;;;;;;6.28;1.77;;;7.90;1.00;;;;;;5012114;28;20178;-71
2021/03/28 06:14:43;;;;;;;9.55;2.70;;;7.90;1.00;;;;;;4977643;28;20256;-72
2021/03/28 06:17:34;;;;;;;5.80;2.05;;;7.80;1.00;;;;;;5077877;28;20179;-71
2021/03/28 06:20:27;;;;;;;6.10;2.63;;;7.80;1.00;;;;;;5093940;28;20159;-71
2021/03/28 06:23:25;;;;;;;8.25;2.17;;;7.90;1.00;;;;;;5093584;28;20241;-72
2021/03/28 06:26:41;;;;;;;5.70;1.83;;;7.90;1.00;;;;;;5077630;28;20182;-71
2021/03/28 06:29:28;;;;;;;4.95;2.20;;;8.00;1.00;;;;;;5093531;28;20240;-71
2021/03/28 06:32:24;;;;;;;8.40;1.92;;;7.90;1.00;;;;;;5093742;28;20230;-71
2021/03/28 06:35:17;;;;;;;7.35;3.50;;;7.90;1.00;;;;;;5093445;28;20594;-72
2021/03/28 06:38:04;;;;;;;6.82;1.92;;;7.90;1.00;;;;;;5093599;28;20156;-72
2021/03/28 06:40:56;;;;;;;6.13;1.85;;;8.00;1.00;;;;;;5093424;28;20156;-72
2021/03/28 06:43:46;;;;;;;9.65;2.00;;;8.10;1.00;;;;;;5093465;28;20186;-72
2021/03/28 06:46:33;;;;;;;7.90;1.98;;;8.20;1.00;;;;;;5093257;28;20156;-72
2021/03/28 06:49:13;;;;;;;6.15;2.30;;;8.10;1.00;;;;;;5093321;28;20521;-71
2021/03/28 06:52:00;;;;;;;3.95;1.45;;;8.20;1.00;;;;;;5093040;28;20535;-72
2021/03/28 06:55:06;;;;;;;6.40;2.15;;;8.40;1.00;;;;;;5091615;28;20243;-71
2021/03/28 06:57:55;;;;;;;8.95;2.33;;;8.30;1.00;;;;;;5093013;28;20204;-72
2021/03/28 07:00:50;;;;;;;7.82;1.92;;;8.40;1.00;;;;;;5093298;28;20148;-71
2021/03/28 07:03:54;;;;;;;8.98;1.95;;;8.40;1.00;;;;;;5092978;28;20199;-71
2021/03/28 07:06:50;;;;;;;8.52;2.15;;;8.40;1.00;;;;;;5091611;28;20178;-71
2021/03/28 07:09:40;;;;;;;7.05;2.75;;;8.30;1.00;;;;;;5092734;28;20284;-71
2021/03/28 07:12:19;;;;;;;8.73;2.20;;;8.40;1.00;;;;;;5092909;28;20223;-71
2021/03/28 07:15:26;;;;;;;5.20;1.85;;;8.30;1.00;;;;;;5092708;28;20214;-71
2021/03/28 07:18:16;;;;;;;5.85;1.80;;;8.40;1.00;;;;;;5093133;28;20157;-72
2021/03/28 07:21:10;;;;;;;6.80;2.08;;;8.60;1.00;;;;;;5092855;28;20278;-71
2021/03/28 07:23:53;;;;;;;4.93;1.60;;;8.50;1.00;;;;;;5092657;28;20199;-72
2021/03/28 07:26:56;;;;;;;4.50;1.80;;;8.60;1.00;;;;;;5092719;28;20257;-71
2021/03/28 07:30:13;;;;;;;9.45;1.98;;;8.60;1.00;;;;;;5092953;28;20243;-71
2021/03/28 07:32:57;;;;;;;9.27;2.70;;;8.60;1.00;;;;;;5047695;28;20572;-72
2021/03/28 07:35:46;;;;;;;5.68;2.25;;;8.70;1.00;;;;;;5092927;28;20194;-71
2021/03/28 07:38:44;;;;;;;7.07;1.88;;;8.80;1.00;;;;;;5092899;28;20181;-72
2021/03/28 07:41:37;;;;;;;5.32;1.70;;;8.80;1.00;;;;;;5092771;28;20243;-72
2021/03/28 07:44:09;;;;;;;4.22;1.63;;;8.80;1.00;;;;;;5092510;28;20183;-71
2021/03/28 07:47:12;;;;;;;7.22;2.25;;;8.90;1.00;;;;;;5092945;28;20156;-72
2021/03/28 07:49:47;;;;;;;5.20;1.50;;;8.90;1.00;;;;;;5092487;28;20180;-71
2021/03/28 07:52:42;;;;;;;5.75;1.85;;;8.80;1.00;;;;;;5092709;28;20219;-71
2021/03/28 07:55:26;;;;;;;7.82;3.05;;;8.90;1.00;;;;;;5054323;28;20221;-72
2021/03/28 07:58:30;;;;;;;8.45;2.15;;;9.00;1.00;;;;;;5092634;28;20176;-72
2021/03/28 08:01:43;;;;;;;4.28;1.60;;;9.10;1.00;;;;;;5091062;28;20168;-71
2021/03/28 08:04:37;;;;;;;8.02;2.00;;;9.00;1.00;;;;;;5095715;28;20250;-71
2021/03/28 08:07:16;;;;;;;5.67;1.70;;;9.20;1.00;;;;;;5096447;28;20238;-72
2021/03/28 08:10:02;;;;;;;7.47;2.53;;;9.20;1.00;;;;;;5095995;28;20413;-71
2021/03/28 08:13:01;;;;;;;8.50;2.35;;;9.30;1.00;;;;;;5096153;28;20878;-71
2021/03/28 08:15:44;;;;;;;7.90;1.70;;;9.40;1.00;;;;;;5096031;28;20187;-70
2021/03/28 08:18:12;;;;;;;6.03;2.20;;;9.60;1.00;;;;;;5096149;28;20160;-71
2021/03/28 08:21:09;;;;;;;8.80;2.03;;;9.50;1.00;;;;;;5096180;28;20473;-71
2021/03/28 08:24:14;;;;;;;5.03;1.60;;;9.60;1.00;;;;;;5095881;28;20425;-71
2021/03/28 08:27:18;;;;;;;5.63;2.00;;;9.60;1.00;;;;;;5096153;28;20470;-71
2021/03/28 08:29:50;;;;;;;5.23;1.97;;;9.80;1.00;;;;;;5096135;28;20166;-71
2021/03/28 08:32:34;;;;;;;6.70;2.28;;;9.90;1.00;;;;;;5095663;28;20412;-71
2021/03/28 08:35:20;;;;;;;6.80;1.90;;;9.90;1.00;;;;;;5095767;28;20217;-71
2021/03/28 08:37:48;;;;;;;5.23;1.53;;;10.10;1.00;;;;;;5095923;28;20789;-71
2021/03/28 08:40:36;;;;;;;17.30;2.37;;;10.20;1.00;;;;;;5095564;28;20501;-70
2021/03/28 08:43:22;;;;;;;6.77;1.90;;;10.40;1.00;;;;;;5095497;28;20421;-71
2021/03/28 08:46:09;;;;;;;14.57;2.07;;;10.40;1.00;;;;;;5095951;28;20373;-70
2021/03/28 08:48:59;;;;;;;4.97;1.70;;;10.50;99.90;;;;;;5095606;28;20435;-71
2021/03/28 08:51:33;;;;;;;3.43;1.50;;;10.60;99.90;;;;;;5095406;28;20381;-71
2021/03/28 08:54:18;;;;;;;2.90;1.57;;;10.60;99.90;;;;;;5095216;28;20458;-71
2021/03/28 08:57:20;;;;;;;3.60;1.90;;;10.90;99.90;;;;;;5094070;28;20413;-71
2021/03/28 09:00:02;;;;;;;5.90;2.40;;;10.90;99.90;;;;;;5095327;28;20385;-71
2021/03/28 09:02:49;;;;;;;5.07;1.67;;;10.90;99.90;;;;;;5095437;28;20426;-71
2021/03/28 09:05:30;;;;;;;4.70;2.00;;;11.20;99.90;;;;;;5095238;28;20877;-71
2021/03/28 09:08:22;;;;;;;9.67;2.50;;;11.30;99.90;;;;;;5095003;28;20417;-71
2021/03/28 09:11:31;;;;;;;11.40;2.30;;;11.50;99.90;;;;;;5095315;28;20389;-71
2021/03/28 09:14:15;;;;;;;3.67;1.30;;;11.40;99.90;;;;;;5094517;28;20449;-71
2021/03/28 09:16:58;;;;;;;7.77;1.87;;;11.70;99.90;;;;;;5094977;28;20397;-71
2021/03/28 09:19:30;;;;;;;8.77;2.00;;;11.80;99.90;;;;;;5095132;28;20386;-71
2021/03/28 09:22:18;;;;;;;10.60;2.37;;;11.90;99.90;;;;;;5094712;28;20386;-71
2021/03/28 09:24:54;;;;;;;6.33;1.80;;;12.10;99.90;;;;;;5093507;28;20778;-71
2021/03/28 09:27:44;;;;;;;6.43;2.50;;;12.30;99.90;;;;;;5094817;28;20384;-71
2021/03/28 09:30:52;;;;;;;5.77;2.30;;;12.30;99.90;;;;;;5094527;28;20378;-70
2021/03/28 09:33:40;;;;;;;3.20;1.60;;;12.30;99.90;;;;;;5094604;28;20474;-70
2021/03/28 09:36:27;;;;;;;4.57;1.80;;;12.50;99.90;;;;;;5094585;28;20402;-71
2021/03/28 09:39:28;;;;;;;5.90;1.37;;;12.30;99.90;;;;;;5094511;28;20380;-71
2021/03/28 09:42:39;;;;;;;6.10;2.13;;;12.40;99.90;;;;;;5080313;28;20421;-70
2021/03/28 09:45:28;;;;;;;5.43;1.67;;;12.40;99.90;;;;;;5063287;28;20440;-71
2021/03/28 09:48:02;;;;;;;9.87;1.80;;;12.40;99.90;;;;;;5094349;28;20390;-71
2021/03/28 09:50:40;;;;;;;8.67;1.77;;;12.50;99.90;;;;;;5093058;28;20412;-71
2021/03/28 09:53:14;;;;;;;5.73;2.30;;;12.50;99.90;;;;;;5094253;28;20434;-71
2021/03/28 09:55:56;;;;;;;5.27;1.80;;;12.60;99.90;;;;;;5094161;28;20904;-71
2021/03/28 09:58:43;;;;;;;7.13;1.97;;;12.60;99.90;;;;;;5094204;28;20382;-71
2021/03/28 10:01:39;;;;;;;5.10;1.70;;;12.50;99.90;;;;;;5094331;28;20389;-71
2021/03/28 10:04:24;;;;;;;9.13;2.00;;;12.50;99.90;;;;;;5094348;28;20389;-70
2021/03/28 10:07:03;;;;;;;12.33;3.00;;;13.10;99.90;;;;;;5094094;28;20386;-71
2021/03/28 10:10:10;;;;;;;7.57;2.20;;;13.30;99.90;;;;;;5093767;28;20813;-71
2021/03/28 10:12:49;;;;;;;4.20;1.93;;;13.10;99.90;;;;;;5093805;28;20540;-71
2021/03/28 10:15:22;;;;;;;7.03;1.50;;;13.10;99.90;;;;;;5094081;28;20771;-71
2021/03/28 10:17:59;;;;;;;4.60;2.50;;;13.10;99.90;;;;;;5093841;28;20897;-71
2021/03/28 10:20:49;;;;;;;5.67;1.87;;;13.30;99.90;;;;;;5093938;28;20377;-70
2021/03/28 10:23:20;;;;;;;4.70;1.77;;;13.90;99.90;;;;;;5093486;28;20417;-70
2021/03/28 10:25:59;;;;;;;8.27;3.13;;;14.00;99.90;;;;;;5092765;28;20451;-71
2021/03/28 10:28:51;;;;;;;6.57;2.60;;;14.20;99.90;;;;;;5093428;28;20379;-71
2021/03/28 10:31:43;;;;;;;8.17;3.40;;;14.80;99.90;;;;;;5093730;28;20383;-70
2021/03/28 10:34:21;;;;;;;5.83;1.57;;;14.80;99.90;;;;;;5093931;28;20848;-71
2021/03/28 10:37:10;;;;;;;8.83;2.57;;;14.70;99.90;;;;;;5094189;28;20375;-71
2021/03/28 10:40:00;;;;;;;8.00;2.73;;;15.00;99.90;;;;;;5094286;28;20379;-71
2021/03/28 10:43:06;;;;;;;7.27;2.80;;;14.70;99.90;;;;;;5093670;28;20421;-71
2021/03/28 10:45:50;;;;;;;3.20;1.27;;;14.60;99.90;;;;;;5093456;28;20528;-70
2021/03/28 10:48:37;;;;;;;5.50;1.60;;;14.40;99.90;;;;;;5093114;28;20421;-70
2021/03/28 10:51:30;;;;;;;4.70;1.30;;;14.80;99.90;;;;;;5093309;28;20389;-71
2021/03/28 10:54:24;;;;;;;4.20;1.73;;;15.00;99.90;;;;;;5093026;28;20446;-70
2021/03/28 10:56:52;;;;;;;11.03;1.63;;;15.10;99.90;;;;;;5093133;28;20417;-71
2021/03/28 10:59:51;;;;;;;2.87;0.93;;;15.10;99.90;;;;;;5092942;28;20407;-71
2021/03/28 11:02:44;;;;;;;5.80;1.47;;;15.20;99.90;;;;;;5093091;28;20799;-72
2021/03/28 11:05:47;;;;;;;10.63;1.70;;;15.40;99.90;;;;;;5092909;28;20396;-71
2021/03/28 11:08:44;;;;;;;7.67;1.97;;;15.70;99.90;;;;;;5093061;28;20460;-71
2021/03/28 11:11:35;;;;;;;7.57;1.73;;;15.40;99.90;;;;;;5092270;28;20407;-71
2021/03/28 11:14:42;;;;;;;5.10;3.13;;;15.70;99.90;;;;;;5092757;28;20454;-72
2021/03/28 11:17:53;;;;;;;6.83;1.53;;;15.90;99.90;;;;;;5011052;28;20433;-71
2021/03/28 11:20:45;;;;;;;6.87;1.90;;;16.10;99.90;;;;;;5093172;28;20372;-71
2021/03/28 11:23:29;;;;;;;3.63;1.83;;;16.50;99.90;;;;;;5089102;28;20443;-71
2021/03/28 11:26:36;;;;;;;9.30;3.63;;;16.40;99.90;;;;;;5092751;28;20402;-71
2021/03/28 11:29:42;;;;;;;4.33;1.13;;;16.50;99.90;;;;;;5093136;28;20418;-71
2021/03/28 11:32:27;;;;;;;4.50;2.00;;;16.70;99.90;;;;;;5092739;28;20952;-70
2021/03/28 11:35:05;;;;;;;9.30;1.83;;;16.80;99.90;;;;;;5092827;28;20434;-71
2021/03/28 11:37:43;;;;;;;3.53;1.57;;;16.70;99.90;;;;;;5095151;28;20825;-71
2021/03/28 11:40:17;;;;;;;2.93;0.80;;;17.20;99.90;;;;;;5097020;28;20727;-71
2021/03/28 11:42:49;;;;;;;4.33;1.50;;;16.90;99.90;;;;;;5096604;28;20432;-71
2021/03/28 11:45:33;;;;;;;5.27;1.30;;;17.30;99.90;;;;;;5097085;28;20390;-71
2021/03/28 11:48:00;;;;;;;5.13;1.40;;;17.40;99.90;;;;;;5096949;28;20388;-71
2021/03/28 11:50:37;;;;;;;5.90;1.87;;;17.00;99.90;;;;;;5096764;28;20447;-71
2021/03/28 11:53:32;;;;;;;5.27;1.50;;;16.80;99.90;;;;;;5096563;28;20457;-71
2021/03/28 11:56:03;;;;;;;7.30;1.07;;;16.90;99.90;;;;;;5094495;28;20956;-71
2021/03/28 11:58:38;;;;;;;4.60;1.37;;;17.30;99.90;;;;;;5095092;28;20409;-71
2021/03/28 12:01:04;;;;;;;6.60;1.63;;;17.10;99.90;;;;;;5096469;28;20522;-72
2021/03/28 12:03:41;;;;;;;6.33;1.87;;;17.10;99.90;;;;;;5096308;28;20827;-71
2021/03/28 12:06:18;;;;;;;4.73;1.50;;;17.60;99.90;;;;;;5096961;28;20443;-71
2021/03/28 12:08:47;;;;;;;4.97;1.20;;;16.90;99.90;;;;;;5096239;28;20420;-70
2021/03/28 12:11:36;;;;;;;8.63;1.60;;;16.40;99.90;;;;;;5096531;28;20403;-71
2021/03/28 12:14:16;;;;;;;8.07;1.40;;;17.10;99.90;;;;;;5096044;28;20488;-72
2021/03/28 12:17:09;;;;;;;6.57;1.87;;;17.20;99.90;;;;;;5096055;28;20429;-71
2021/03/28 12:20:04;;;;;;;3.83;1.70;;;17.40;99.90;;;;;;5096135;28;20392;-71
2021/03/28 12:22:41;;;;;;;7.60;1.30;;;17.60;99.90;;;;;;5096173;28;20409;-72
2021/03/28 12:25:12;;;;;;;4.87;1.97;;;17.90;99.90;;;;;;5095854;28;20402;-72
2021/03/28 12:27:47;;;;;;;8.30;1.80;;;18.20;99.90;;;;;;5095795;28;20811;-71
2021/03/28 12:30:28;;;;;;;5.03;1.50;;;17.70;99.90;;;;;;5095977;28;20389;-71
2021/03/28 12:33:02;;;;;;;3.93;1.63;;;16.80;99.90;;;;;;5095774;28;20456;-72
2021/03/28 12:35:39;;;;;;;6.63;1.53;;;17.40;99.90;;;;;;5094944;28;20432;-72
2021/03/28 12:38:19;;;;;;;7.80;1.77;;;17.00;99.90;;;;;;5095580;28;20407;-71
2021/03/28 12:40:46;;;;;;;5.53;1.50;;;17.20;99.90;;;;;;5095736;28;20389;-71
2021/03/28 12:43:43;;;;;;;6.13;1.40;;;16.60;99.90;;;;;;5096207;28;20429;-71
2021/03/28 12:46:24;;;;;;;6.03;1.60;;;17.00;99.90;;;;;;5079155;28;20425;-71
2021/03/28 12:48:53;;;;;;;5.90;1.17;;;17.30;99.90;;;;;;5094813;28;20406;-71
2021/03/28 12:51:23;;;;;;;6.63;1.73;;;17.20;99.90;;;;;;5095655;28;20447;-71
2021/03/28 12:53:49;;;;;;;6.70;1.90;;;17.40;99.90;;;;;;5095464;28;20453;-70
2021/03/28 12:56:29;;;;;;;3.80;1.60;;;17.70;99.90;;;;;;5095408;28;20406;-71
2021/03/28 12:58:54;;;;;;;4.77;1.83;;;16.90;99.90;;;;;;5094996;28;20385;-71
2021/03/28 13:01:32;;;;;;;4.77;1.90;;;16.60;99.90;;;;;;5095083;28;20412;-71
2021/03/28 13:04:27;;;;;;;8.63;1.67;;;16.90;99.90;;;;;;5094689;28;20262;-71
2021/03/28 13:06:53;;;;;;;4.70;1.40;;;17.10;99.90;;;;;;5077924;28;20418;-71
2021/03/28 13:09:24;;;;;;;4.13;1.90;;;17.60;99.90;;;;;;5094573;28;20448;-71
2021/03/28 13:12:09;;;;;;;5.50;1.90;;;17.10;99.90;;;;;;5095072;28;20401;-71
2021/03/28 13:14:44;;;;;;;3.40;1.27;;;16.90;99.90;;;;;;5095234;28;20476;-71
2021/03/28 13:17:27;;;;;;;6.53;2.17;;;16.70;99.90;;;;;;5095000;28;20401;-71
2021/03/28 13:20:10;;;;;;;4.53;1.60;;;16.90;99.90;;;;;;5094869;28;20447;-71
2021/03/28 13:22:37;;;;;;;8.30;1.93;;;17.20;99.90;;;;;;5094120;28;20915;-71
2021/03/28 13:25:28;;;;;;;3.40;1.33;;;17.20;99.90;;;;;;5094566;28;20475;-71
2021/03/28 13:28:00;;;;;;;3.83;1.60;;;17.40;99.90;;;;;;5095066;28;20382;-71
2021/03/28 13:30:38;;;;;;;6.20;1.73;;;17.50;99.90;;;;;;5094472;28;20444;-71
2021/03/28 13:33:29;;;;;;;7.80;1.67;;;17.50;99.90;;;;;;5094600;28;20506;-71
2021/03/28 13:35:57;;;;;;;7.37;1.73;;;17.30;99.90;;;;;;5094358;28;20416;-71
2021/03/28 13:38:25;;;;;;;3.53;1.67;;;17.50;99.90;;;;;;5094529;28;20818;-71
2021/03/28 13:41:20;;;;;;;4.60;1.53;;;17.50;99.90;;;;;;5094525;28;20398;-72
2021/03/28 13:43:47;;;;;;;4.13;1.33;;;17.40;99.90;;;;;;5094825;28;20414;-71
2021/03/28 13:46:16;;;;;;;5.33;1.60;;;17.80;99.90;;;;;;5094322;28;20468;-72
2021/03/28 13:48:43;;;;;;;4.10;1.30;;;17.90;99.90;;;;;;5094456;28;20408;-72
2021/03/28 13:51:25;;;;;;;5.43;2.00;;;17.00;99.90;;;;;;5094169;28;20402;-72
2021/03/28 13:53:53;;;;;;;5.40;1.70;;;17.50;99.90;;;;;;5093992;28;20451;-71
2021/03/28 13:56:22;;;;;;;4.70;2.00;;;17.70;99.90;;;;;;5094113;28;20824;-72
2021/03/28 13:59:19;;;;;;;2.33;1.47;;;17.90;99.90;;;;;;5092807;28;20406;-71
2021/03/28 14:02:00;;;;;;;7.47;1.80;;;17.60;99.90;;;;;;5092848;28;20416;-71
2021/03/28 14:04:32;;;;;;;4.10;1.50;;;17.60;99.90;;;;;;5094283;28;20390;-72
2021/03/28 14:07:29;;;;;;;4.27;1.70;;;17.00;99.90;;;;;;5094183;28;20827;-71
2021/03/28 14:10:04;;;;;;;3.77;1.30;;;16.90;99.90;;;;;;5093004;28;20430;-71
2021/03/28 14:12:35;;;;;;;6.07;1.57;;;16.70;99.90;;;;;;5093900;28;20515;-71
2021/03/28 14:15:25;;;;;;;5.10;1.43;;;16.90;99.90;;;;;;5094109;28;20945;-71
2021/03/28 14:18:06;;;;;;;5.00;1.40;;;16.50;99.90;;;;;;5094099;28;20411;-71
2021/03/28 14:20:43;;;;;;;6.60;1.40;;;16.30;99.90;;;;;;5093971;28;20754;-71
2021/03/28 14:23:11;;;;;;;6.23;1.70;;;16.80;99.90;;;;;;5093798;28;20416;-72
2021/03/28 14:26:01;;;;;;;4.80;1.30;;;16.90;99.90;;;;;;5093665;28;20484;-71
2021/03/28 14:28:27;;;;;;;2.33;1.07;;;16.80;99.90;;;;;;5093154;28;20422;-71
2021/03/28 14:31:01;;;;;;;9.63;1.67;;;16.20;99.90;;;;;;5093793;28;20765;-71
2021/03/28 14:33:42;;;;;;;10.63;2.10;;;16.30;99.90;;;;;;5093441;28;20198;-71
2021/03/28 14:36:27;;;;;;;3.73;1.27;;;16.50;99.90;;;;;;5093531;28;20392;-71